sensor_id;sensor_type;location;lat;lon;timestamp;temperature;humidity
13569;DHT22;6856;51.460;7.158;2023-04-05T00:01:59;6.90;48.80
13569;DHT22;6856;51.460;7.158;2023-04-05T00:04:34;6.80;48.70
13569;DHT22;6856;51.460;7.158;2023-04-05T00:07:09;6.90;48.90
13569;DHT22;6856;51.460;7.158;2023-04-05T00:09:43;6.80;48.90
13569;DHT22;6856;51.460;7.158;2023-04-05T00:12:18;6.80;49.00
13569;DHT22;6856;51.460;7.158;2023-04-05T00:14:52;6.70;49.00
13569;DHT22;6856;51.460;7.158;2023-04-05T00:17:25;6.70;49.10
13569;DHT22;6856;51.460;7.158;2023-04-05T00:20:02;6.70;49.10
13569;DHT22;6856;51.460;7.158;2023-04-05T00:22:40;6.70;49.20
13569;DHT22;6856;51.460;7.158;2023-04-05T00:25:16;6.60;49.20
13569;DHT22;6856;51.460;7.158;2023-04-05T00:27:53;6.60;49.20
13569;DHT22;6856;51.460;7.158;2023-04-05T00:30:26;6.20;49.10
13569;DHT22;6856;51.460;7.158;2023-04-05T00:33:01;6.50;49.40
13569;DHT22;6856;51.460;7.158;2023-04-05T00:35:36;6.50;49.40
13569;DHT22;6856;51.460;7.158;2023-04-05T00:38:10;6.50;49.40
13569;DHT22;6856;51.460;7.158;2023-04-05T00:40:43;6.50;49.40
13569;DHT22;6856;51.460;7.158;2023-04-05T00:43:18;6.50;49.50
13569;DHT22;6856;51.460;7.158;2023-04-05T00:45:52;6.40;49.60
13569;DHT22;6856;51.460;7.158;2023-04-05T00:48:27;6.40;49.70
13569;DHT22;6856;51.460;7.158;2023-04-05T00:51:03;6.40;49.70
13569;DHT22;6856;51.460;7.158;2023-04-05T00:53:42;6.40;49.80
13569;DHT22;6856;51.460;7.158;2023-04-05T00:56:17;6.30;49.80
13569;DHT22;6856;51.460;7.158;2023-04-05T00:58:52;6.30;49.90
13569;DHT22;6856;51.460;7.158;2023-04-05T01:01:27;6.30;49.70
13569;DHT22;6856;51.460;7.158;2023-04-05T01:04:02;6.30;49.90
13569;DHT22;6856;51.460;7.158;2023-04-05T01:06:55;6.20;49.90
13569;DHT22;6856;51.460;7.158;2023-04-05T01:09:44;6.20;50.10
13569;DHT22;6856;51.460;7.158;2023-04-05T01:12:28;6.10;49.90
13569;DHT22;6856;51.460;7.158;2023-04-05T01:15:05;6.10;49.90
13569;DHT22;6856;51.460;7.158;2023-04-05T01:17:40;6.00;49.80
13569;DHT22;6856;51.460;7.158;2023-04-05T01:20:15;6.00;49.90
13569;DHT22;6856;51.460;7.158;2023-04-05T01:23:15;6.00;50.00
13569;DHT22;6856;51.460;7.158;2023-04-05T01:29:38;5.90;50.30
13569;DHT22;6856;51.460;7.158;2023-04-05T01:32:41;5.90;50.20
13569;DHT22;6856;51.460;7.158;2023-04-05T01:35:29;6.00;50.20
13569;DHT22;6856;51.460;7.158;2023-04-05T01:38:11;5.80;50.10
13569;DHT22;6856;51.460;7.158;2023-04-05T01:40:51;5.80;50.20
13569;DHT22;6856;51.460;7.158;2023-04-05T01:43:25;5.70;50.30
13569;DHT22;6856;51.460;7.158;2023-04-05T01:46:00;5.70;50.30
13569;DHT22;6856;51.460;7.158;2023-04-05T01:48:34;5.70;50.30
13569;DHT22;6856;51.460;7.158;2023-04-05T01:51:08;5.60;50.40
13569;DHT22;6856;51.460;7.158;2023-04-05T01:53:41;5.30;50.30
13569;DHT22;6856;51.460;7.158;2023-04-05T01:56:15;5.60;50.40
13569;DHT22;6856;51.460;7.158;2023-04-05T01:58:49;5.50;50.40
13569;DHT22;6856;51.460;7.158;2023-04-05T02:01:24;5.50;50.40
13569;DHT22;6856;51.460;7.158;2023-04-05T02:03:58;5.50;50.60
13569;DHT22;6856;51.460;7.158;2023-04-05T02:06:31;5.50;50.60
13569;DHT22;6856;51.460;7.158;2023-04-05T02:09:05;5.40;50.50
13569;DHT22;6856;51.460;7.158;2023-04-05T02:11:39;5.60;50.70
13569;DHT22;6856;51.460;7.158;2023-04-05T02:14:13;5.30;50.60
13569;DHT22;6856;51.460;7.158;2023-04-05T02:16:48;5.30;50.70
13569;DHT22;6856;51.460;7.158;2023-04-05T02:19:22;5.30;50.80
13569;DHT22;6856;51.460;7.158;2023-04-05T02:21:57;5.30;50.80
13569;DHT22;6856;51.460;7.158;2023-04-05T02:24:30;5.20;50.80
13569;DHT22;6856;51.460;7.158;2023-04-05T02:27:05;5.20;50.80
13569;DHT22;6856;51.460;7.158;2023-04-05T02:29:39;4.90;50.80
13569;DHT22;6856;51.460;7.158;2023-04-05T02:32:15;5.20;50.90
13569;DHT22;6856;51.460;7.158;2023-04-05T02:34:48;5.10;50.80
13569;DHT22;6856;51.460;7.158;2023-04-05T02:37:23;5.10;50.90
13569;DHT22;6856;51.460;7.158;2023-04-05T02:39:58;5.10;51.50
13569;DHT22;6856;51.460;7.158;2023-04-05T02:42:32;5.10;51.00
13569;DHT22;6856;51.460;7.158;2023-04-05T02:45:06;4.80;50.90
13569;DHT22;6856;51.460;7.158;2023-04-05T02:47:42;5.00;51.10
13569;DHT22;6856;51.460;7.158;2023-04-05T02:50:16;5.00;51.20
13569;DHT22;6856;51.460;7.158;2023-04-05T02:52:52;5.00;51.30
13569;DHT22;6856;51.460;7.158;2023-04-05T02:55:26;4.90;51.30
13569;DHT22;6856;51.460;7.158;2023-04-05T02:58:00;4.90;51.20
13569;DHT22;6856;51.460;7.158;2023-04-05T03:00:33;4.90;51.20
13569;DHT22;6856;51.460;7.158;2023-04-05T03:03:08;4.90;51.30
13569;DHT22;6856;51.460;7.158;2023-04-05T03:05:42;4.90;51.40
13569;DHT22;6856;51.460;7.158;2023-04-05T03:08:16;4.80;51.50
13569;DHT22;6856;51.460;7.158;2023-04-05T03:10:51;4.80;51.50
13569;DHT22;6856;51.460;7.158;2023-04-05T03:13:25;4.70;51.50
13569;DHT22;6856;51.460;7.158;2023-04-05T03:15:58;4.70;51.50
13569;DHT22;6856;51.460;7.158;2023-04-05T03:18:34;4.70;51.40
13569;DHT22;6856;51.460;7.158;2023-04-05T03:21:07;4.70;51.60
13569;DHT22;6856;51.460;7.158;2023-04-05T03:23:43;4.70;51.70
13569;DHT22;6856;51.460;7.158;2023-04-05T03:26:17;4.60;51.60
13569;DHT22;6856;51.460;7.158;2023-04-05T03:28:51;4.60;51.70
13569;DHT22;6856;51.460;7.158;2023-04-05T03:31:25;4.60;51.70
13569;DHT22;6856;51.460;7.158;2023-04-05T03:34:01;4.60;51.70
13569;DHT22;6856;51.460;7.158;2023-04-05T03:36:35;4.50;51.70
13569;DHT22;6856;51.460;7.158;2023-04-05T03:39:14;4.50;51.60
13569;DHT22;6856;51.460;7.158;2023-04-05T03:41:48;4.50;51.80
13569;DHT22;6856;51.460;7.158;2023-04-05T03:44:21;4.50;51.70
13569;DHT22;6856;51.460;7.158;2023-04-05T03:46:55;4.50;51.80
13569;DHT22;6856;51.460;7.158;2023-04-05T03:49:31;4.50;51.90
13569;DHT22;6856;51.460;7.158;2023-04-05T03:52:04;4.40;51.80
13569;DHT22;6856;51.460;7.158;2023-04-05T03:54:39;4.40;51.80
13569;DHT22;6856;51.460;7.158;2023-04-05T03:57:12;4.40;51.80
13569;DHT22;6856;51.460;7.158;2023-04-05T03:59:46;4.40;51.90
13569;DHT22;6856;51.460;7.158;2023-04-05T04:02:19;4.40;52.10
13569;DHT22;6856;51.460;7.158;2023-04-05T04:04:55;4.40;52.20
13569;DHT22;6856;51.460;7.158;2023-04-05T04:07:29;4.30;52.20
13569;DHT22;6856;51.460;7.158;2023-04-05T04:10:02;4.30;52.30
13569;DHT22;6856;51.460;7.158;2023-04-05T04:12:37;4.30;52.40
13569;DHT22;6856;51.460;7.158;2023-04-05T04:15:11;4.30;52.30
13569;DHT22;6856;51.460;7.158;2023-04-05T04:17:45;4.20;52.40
13569;DHT22;6856;51.460;7.158;2023-04-05T04:20:21;4.20;52.50
13569;DHT22;6856;51.460;7.158;2023-04-05T04:22:57;4.20;52.50
13569;DHT22;6856;51.460;7.158;2023-04-05T04:25:31;4.20;52.60
13569;DHT22;6856;51.460;7.158;2023-04-05T04:28:06;4.10;52.50
13569;DHT22;6856;51.460;7.158;2023-04-05T04:30:40;4.10;52.50
13569;DHT22;6856;51.460;7.158;2023-04-05T04:33:14;4.10;52.60
13569;DHT22;6856;51.460;7.158;2023-04-05T04:35:52;4.10;52.60
13569;DHT22;6856;51.460;7.158;2023-04-05T04:38:26;4.00;52.60
13569;DHT22;6856;51.460;7.158;2023-04-05T04:40:59;4.00;52.70
13569;DHT22;6856;51.460;7.158;2023-04-05T04:43:39;4.00;52.80
13569;DHT22;6856;51.460;7.158;2023-04-05T04:46:15;4.00;52.70
13569;DHT22;6856;51.460;7.158;2023-04-05T04:48:52;4.00;52.60
13569;DHT22;6856;51.460;7.158;2023-04-05T04:51:27;3.90;52.60
13569;DHT22;6856;51.460;7.158;2023-04-05T04:54:02;3.90;52.70
13569;DHT22;6856;51.460;7.158;2023-04-05T04:56:35;3.90;52.80
13569;DHT22;6856;51.460;7.158;2023-04-05T04:59:09;3.90;52.90
13569;DHT22;6856;51.460;7.158;2023-04-05T05:01:44;3.90;52.90
13569;DHT22;6856;51.460;7.158;2023-04-05T05:04:18;3.90;53.10
13569;DHT22;6856;51.460;7.158;2023-04-05T05:06:54;3.80;53.00
13569;DHT22;6856;51.460;7.158;2023-04-05T05:09:28;3.80;53.10
13569;DHT22;6856;51.460;7.158;2023-04-05T05:12:02;3.80;53.20
13569;DHT22;6856;51.460;7.158;2023-04-05T05:14:36;3.80;53.20
13569;DHT22;6856;51.460;7.158;2023-04-05T05:17:10;3.80;53.30
13569;DHT22;6856;51.460;7.158;2023-04-05T05:19:44;3.80;53.30
13569;DHT22;6856;51.460;7.158;2023-04-05T05:22:19;3.80;53.30
13569;DHT22;6856;51.460;7.158;2023-04-05T05:24:53;3.80;53.30
13569;DHT22;6856;51.460;7.158;2023-04-05T05:27:26;3.90;53.30
13569;DHT22;6856;51.460;7.158;2023-04-05T05:30:00;3.80;53.40
13569;DHT22;6856;51.460;7.158;2023-04-05T05:32:34;3.80;53.30
13569;DHT22;6856;51.460;7.158;2023-04-05T05:35:08;3.70;53.40
13569;DHT22;6856;51.460;7.158;2023-04-05T05:37:46;3.80;53.30
13569;DHT22;6856;51.460;7.158;2023-04-05T05:40:19;3.80;53.70
13569;DHT22;6856;51.460;7.158;2023-04-05T05:42:53;3.80;53.70
13569;DHT22;6856;51.460;7.158;2023-04-05T05:45:27;3.80;53.80
13569;DHT22;6856;51.460;7.158;2023-04-05T05:48:00;3.80;53.90
13569;DHT22;6856;51.460;7.158;2023-04-05T05:50:36;3.80;53.90
13569;DHT22;6856;51.460;7.158;2023-04-05T05:53:12;3.50;53.90
13569;DHT22;6856;51.460;7.158;2023-04-05T05:55:46;4.10;54.30
13569;DHT22;6856;51.460;7.158;2023-04-05T05:58:19;3.80;54.20
13569;DHT22;6856;51.460;7.158;2023-04-05T06:00:53;4.10;54.50
13569;DHT22;6856;51.460;7.158;2023-04-05T06:03:28;3.90;54.50
13569;DHT22;6856;51.460;7.158;2023-04-05T06:06:03;3.90;54.70
13569;DHT22;6856;51.460;7.158;2023-04-05T06:08:45;3.90;54.70
13569;DHT22;6856;51.460;7.158;2023-04-05T06:11:20;4.00;54.80
13569;DHT22;6856;51.460;7.158;2023-04-05T06:13:56;4.00;55.10
13569;DHT22;6856;51.460;7.158;2023-04-05T06:16:29;4.10;55.20
13569;DHT22;6856;51.460;7.158;2023-04-05T06:19:03;4.10;55.30
13569;DHT22;6856;51.460;7.158;2023-04-05T06:21:40;4.20;55.50
13569;DHT22;6856;51.460;7.158;2023-04-05T06:24:15;4.20;55.50
13569;DHT22;6856;51.460;7.158;2023-04-05T06:26:50;4.30;55.70
13569;DHT22;6856;51.460;7.158;2023-04-05T06:29:24;4.40;55.60
13569;DHT22;6856;51.460;7.158;2023-04-05T06:31:59;4.50;55.80
13569;DHT22;6856;51.460;7.158;2023-04-05T06:34:32;4.50;56.10
13569;DHT22;6856;51.460;7.158;2023-04-05T06:37:06;4.60;56.20
13569;DHT22;6856;51.460;7.158;2023-04-05T06:39:41;4.70;56.00
13569;DHT22;6856;51.460;7.158;2023-04-05T06:42:15;4.80;55.80
13569;DHT22;6856;51.460;7.158;2023-04-05T06:44:48;4.90;55.70
13569;DHT22;6856;51.460;7.158;2023-04-05T06:47:22;5.00;55.50
13569;DHT22;6856;51.460;7.158;2023-04-05T06:49:56;5.10;55.40
13569;DHT22;6856;51.460;7.158;2023-04-05T06:52:30;5.20;55.30
13569;DHT22;6856;51.460;7.158;2023-04-05T06:55:07;5.40;55.40
13569;DHT22;6856;51.460;7.158;2023-04-05T06:57:41;5.50;55.00
13569;DHT22;6856;51.460;7.158;2023-04-05T07:00:15;5.60;54.80
13569;DHT22;6856;51.460;7.158;2023-04-05T07:02:49;5.70;54.70
13569;DHT22;6856;51.460;7.158;2023-04-05T07:05:23;5.90;54.60
13569;DHT22;6856;51.460;7.158;2023-04-05T07:07:58;6.00;54.50
13569;DHT22;6856;51.460;7.158;2023-04-05T07:10:38;6.10;54.40
13569;DHT22;6856;51.460;7.158;2023-04-05T07:13:13;6.20;54.40
13569;DHT22;6856;51.460;7.158;2023-04-05T07:15:48;6.40;54.20
13569;DHT22;6856;51.460;7.158;2023-04-05T07:18:24;6.50;54.30
13569;DHT22;6856;51.460;7.158;2023-04-05T07:20:58;6.60;54.20
13569;DHT22;6856;51.460;7.158;2023-04-05T07:23:33;6.70;53.90
13569;DHT22;6856;51.460;7.158;2023-04-05T07:26:08;6.90;53.80
13569;DHT22;6856;51.460;7.158;2023-04-05T07:28:43;7.00;53.80
13569;DHT22;6856;51.460;7.158;2023-04-05T07:31:17;7.10;53.40
13569;DHT22;6856;51.460;7.158;2023-04-05T07:33:51;7.20;53.20
13569;DHT22;6856;51.460;7.158;2023-04-05T07:36:25;7.30;53.10
13569;DHT22;6856;51.460;7.158;2023-04-05T07:38:59;7.40;53.10
13569;DHT22;6856;51.460;7.158;2023-04-05T07:41:35;7.50;52.90
13569;DHT22;6856;51.460;7.158;2023-04-05T07:44:09;7.60;52.80
13569;DHT22;6856;51.460;7.158;2023-04-05T07:46:43;7.70;52.60
13569;DHT22;6856;51.460;7.158;2023-04-05T07:49:24;7.80;52.50
13569;DHT22;6856;51.460;7.158;2023-04-05T07:51:58;8.00;52.60
13569;DHT22;6856;51.460;7.158;2023-04-05T07:54:32;8.10;52.30
13569;DHT22;6856;51.460;7.158;2023-04-05T07:57:07;8.30;52.20
13569;DHT22;6856;51.460;7.158;2023-04-05T07:59:41;8.30;51.80
13569;DHT22;6856;51.460;7.158;2023-04-05T08:02:15;8.70;51.60
13569;DHT22;6856;51.460;7.158;2023-04-05T08:04:49;8.60;51.10
13569;DHT22;6856;51.460;7.158;2023-04-05T08:07:24;8.70;50.70
13569;DHT22;6856;51.460;7.158;2023-04-05T08:09:58;8.80;49.90
13569;DHT22;6856;51.460;7.158;2023-04-05T08:12:33;8.90;49.70
13569;DHT22;6856;51.460;7.158;2023-04-05T08:15:10;9.00;49.50
13569;DHT22;6856;51.460;7.158;2023-04-05T08:17:43;9.10;49.10
13569;DHT22;6856;51.460;7.158;2023-04-05T08:20:18;9.20;49.40
13569;DHT22;6856;51.460;7.158;2023-04-05T08:22:51;9.30;49.60
13569;DHT22;6856;51.460;7.158;2023-04-05T08:25:25;9.40;49.50
13569;DHT22;6856;51.460;7.158;2023-04-05T08:28:01;9.50;49.10
13569;DHT22;6856;51.460;7.158;2023-04-05T08:30:37;9.60;49.20
13569;DHT22;6856;51.460;7.158;2023-04-05T08:33:12;9.70;49.30
13569;DHT22;6856;51.460;7.158;2023-04-05T08:35:46;9.80;49.10
13569;DHT22;6856;51.460;7.158;2023-04-05T08:38:19;9.90;48.30
13569;DHT22;6856;51.460;7.158;2023-04-05T08:40:54;10.00;48.20
13569;DHT22;6856;51.460;7.158;2023-04-05T08:43:39;10.20;48.00
13569;DHT22;6856;51.460;7.158;2023-04-05T08:46:21;10.20;47.90
13569;DHT22;6856;51.460;7.158;2023-04-05T08:48:56;10.30;48.00
13569;DHT22;6856;51.460;7.158;2023-04-05T08:51:30;10.40;48.00
13569;DHT22;6856;51.460;7.158;2023-04-05T08:54:04;10.50;47.40
13569;DHT22;6856;51.460;7.158;2023-04-05T08:56:38;10.60;47.20
13569;DHT22;6856;51.460;7.158;2023-04-05T08:59:16;10.60;47.20
13569;DHT22;6856;51.460;7.158;2023-04-05T09:01:52;10.80;47.40
13569;DHT22;6856;51.460;7.158;2023-04-05T09:04:31;10.80;47.50
13569;DHT22;6856;51.460;7.158;2023-04-05T09:07:09;11.00;47.00
13569;DHT22;6856;51.460;7.158;2023-04-05T09:09:48;11.10;46.90
13569;DHT22;6856;51.460;7.158;2023-04-05T09:12:27;11.20;46.70
13569;DHT22;6856;51.460;7.158;2023-04-05T09:15:07;11.20;46.60
13569;DHT22;6856;51.460;7.158;2023-04-05T09:17:42;11.40;46.80
13569;DHT22;6856;51.460;7.158;2023-04-05T09:20:17;11.40;46.70
13569;DHT22;6856;51.460;7.158;2023-04-05T09:22:51;11.50;46.60
13569;DHT22;6856;51.460;7.158;2023-04-05T09:25:35;11.40;46.10
13569;DHT22;6856;51.460;7.158;2023-04-05T09:28:10;11.80;45.60
13569;DHT22;6856;51.460;7.158;2023-04-05T09:30:46;11.80;45.50
13569;DHT22;6856;51.460;7.158;2023-04-05T09:33:20;11.90;45.20
13569;DHT22;6856;51.460;7.158;2023-04-05T09:35:57;11.90;44.80
13569;DHT22;6856;51.460;7.158;2023-04-05T09:38:44;11.90;44.50
13569;DHT22;6856;51.460;7.158;2023-04-05T09:41:18;11.90;44.20
13569;DHT22;6856;51.460;7.158;2023-04-05T09:43:52;11.90;44.30
13569;DHT22;6856;51.460;7.158;2023-04-05T09:46:31;12.00;44.00
13569;DHT22;6856;51.460;7.158;2023-04-05T09:49:10;12.00;44.30
13569;DHT22;6856;51.460;7.158;2023-04-05T09:51:45;12.10;44.80
13569;DHT22;6856;51.460;7.158;2023-04-05T09:54:19;12.10;45.20
13569;DHT22;6856;51.460;7.158;2023-04-05T09:56:53;12.20;45.10
13569;DHT22;6856;51.460;7.158;2023-04-05T09:59:28;12.30;44.80
13569;DHT22;6856;51.460;7.158;2023-04-05T10:02:04;12.40;44.30
13569;DHT22;6856;51.460;7.158;2023-04-05T10:04:39;12.50;43.90
13569;DHT22;6856;51.460;7.158;2023-04-05T10:07:15;12.60;44.10
13569;DHT22;6856;51.460;7.158;2023-04-05T10:09:49;12.70;44.00
13569;DHT22;6856;51.460;7.158;2023-04-05T10:12:25;12.80;43.90
13569;DHT22;6856;51.460;7.158;2023-04-05T10:14:59;12.90;43.40
13569;DHT22;6856;51.460;7.158;2023-04-05T10:17:38;12.90;43.40
13569;DHT22;6856;51.460;7.158;2023-04-05T10:20:22;13.00;42.80
13569;DHT22;6856;51.460;7.158;2023-04-05T10:22:59;13.10;43.10
13569;DHT22;6856;51.460;7.158;2023-04-05T10:25:46;13.10;42.90
13569;DHT22;6856;51.460;7.158;2023-04-05T10:28:28;13.20;42.90
13569;DHT22;6856;51.460;7.158;2023-04-05T10:31:10;13.20;43.00
13569;DHT22;6856;51.460;7.158;2023-04-05T10:34:12;13.30;42.50
13569;DHT22;6856;51.460;7.158;2023-04-05T10:36:57;13.30;42.30
13569;DHT22;6856;51.460;7.158;2023-04-05T10:39:34;13.40;42.40
13569;DHT22;6856;51.460;7.158;2023-04-05T10:42:19;13.50;42.20
13569;DHT22;6856;51.460;7.158;2023-04-05T10:44:58;13.50;41.70
13569;DHT22;6856;51.460;7.158;2023-04-05T10:47:43;13.60;41.90
13569;DHT22;6856;51.460;7.158;2023-04-05T10:50:23;13.70;41.70
13569;DHT22;6856;51.460;7.158;2023-04-05T10:52:58;13.70;41.50
13569;DHT22;6856;51.460;7.158;2023-04-05T10:55:33;13.70;41.50
13569;DHT22;6856;51.460;7.158;2023-04-05T10:58:09;13.80;41.80
13569;DHT22;6856;51.460;7.158;2023-04-05T11:00:45;13.80;41.80
13569;DHT22;6856;51.460;7.158;2023-04-05T11:03:46;13.90;41.50
13569;DHT22;6856;51.460;7.158;2023-04-05T11:06:23;14.00;41.10
13569;DHT22;6856;51.460;7.158;2023-04-05T11:09:10;14.10;41.50
13569;DHT22;6856;51.460;7.158;2023-04-05T11:11:48;14.20;41.20
13569;DHT22;6856;51.460;7.158;2023-04-05T11:14:24;14.40;41.50
13569;DHT22;6856;51.460;7.158;2023-04-05T11:17:23;14.50;41.00
13569;DHT22;6856;51.460;7.158;2023-04-05T11:20:02;14.60;40.60
13569;DHT22;6856;51.460;7.158;2023-04-05T11:22:38;14.80;40.50
13569;DHT22;6856;51.460;7.158;2023-04-05T11:25:21;14.90;40.00
13569;DHT22;6856;51.460;7.158;2023-04-05T11:27:59;15.00;39.60
13569;DHT22;6856;51.460;7.158;2023-04-05T11:30:46;15.10;39.90
13569;DHT22;6856;51.460;7.158;2023-04-05T11:33:35;15.20;38.70
13569;DHT22;6856;51.460;7.158;2023-04-05T11:36:11;15.20;38.20
13569;DHT22;6856;51.460;7.158;2023-04-05T11:38:48;15.30;38.60
13569;DHT22;6856;51.460;7.158;2023-04-05T11:41:59;15.30;38.20
13569;DHT22;6856;51.460;7.158;2023-04-05T11:44:42;15.40;38.50
13569;DHT22;6856;51.460;7.158;2023-04-05T11:47:18;15.40;38.00
13569;DHT22;6856;51.460;7.158;2023-04-05T11:49:52;15.40;38.10
13569;DHT22;6856;51.460;7.158;2023-04-05T11:52:26;15.40;38.30
13569;DHT22;6856;51.460;7.158;2023-04-05T11:55:01;15.40;38.10
13569;DHT22;6856;51.460;7.158;2023-04-05T11:57:36;15.50;38.20
13569;DHT22;6856;51.460;7.158;2023-04-05T12:00:15;15.60;38.20
13569;DHT22;6856;51.460;7.158;2023-04-05T12:02:49;15.70;38.40
13569;DHT22;6856;51.460;7.158;2023-04-05T12:05:23;15.80;38.70
13569;DHT22;6856;51.460;7.158;2023-04-05T12:07:57;15.90;38.10
13569;DHT22;6856;51.460;7.158;2023-04-05T12:10:33;16.00;37.90
13569;DHT22;6856;51.460;7.158;2023-04-05T12:13:07;16.10;38.30
13569;DHT22;6856;51.460;7.158;2023-04-05T12:15:41;16.20;38.10
13569;DHT22;6856;51.460;7.158;2023-04-05T12:18:16;16.20;38.00
13569;DHT22;6856;51.460;7.158;2023-04-05T12:20:50;16.30;37.60
13569;DHT22;6856;51.460;7.158;2023-04-05T12:23:24;16.30;37.50
13569;DHT22;6856;51.460;7.158;2023-04-05T12:26:00;16.30;37.10
13569;DHT22;6856;51.460;7.158;2023-04-05T12:28:51;16.30;37.10
13569;DHT22;6856;51.460;7.158;2023-04-05T12:31:36;16.30;36.70
13569;DHT22;6856;51.460;7.158;2023-04-05T12:34:14;16.40;37.20
13569;DHT22;6856;51.460;7.158;2023-04-05T12:36:55;16.40;37.40
13569;DHT22;6856;51.460;7.158;2023-04-05T12:39:37;16.40;36.90
13569;DHT22;6856;51.460;7.158;2023-04-05T12:42:17;16.50;38.00
13569;DHT22;6856;51.460;7.158;2023-04-05T12:45:02;16.50;38.40
13569;DHT22;6856;51.460;7.158;2023-04-05T12:47:48;16.70;38.30
13569;DHT22;6856;51.460;7.158;2023-04-05T12:50:26;16.80;37.40
13569;DHT22;6856;51.460;7.158;2023-04-05T12:53:05;16.90;37.20
13569;DHT22;6856;51.460;7.158;2023-04-05T12:55:42;16.90;37.00
13569;DHT22;6856;51.460;7.158;2023-04-05T12:58:31;17.00;36.60
13569;DHT22;6856;51.460;7.158;2023-04-05T13:01:07;17.00;36.90
13569;DHT22;6856;51.460;7.158;2023-04-05T13:03:43;17.10;37.10
13569;DHT22;6856;51.460;7.158;2023-04-05T13:06:20;17.10;36.40
13569;DHT22;6856;51.460;7.158;2023-04-05T13:08:54;17.10;36.30
13569;DHT22;6856;51.460;7.158;2023-04-05T13:11:28;17.10;36.10
13569;DHT22;6856;51.460;7.158;2023-04-05T13:14:03;17.10;36.00
13569;DHT22;6856;51.460;7.158;2023-04-05T13:16:37;17.10;36.10
13569;DHT22;6856;51.460;7.158;2023-04-05T13:19:11;17.10;36.30
13569;DHT22;6856;51.460;7.158;2023-04-05T13:21:45;17.10;36.10
13569;DHT22;6856;51.460;7.158;2023-04-05T13:24:19;17.20;35.60
13569;DHT22;6856;51.460;7.158;2023-04-05T13:26:52;17.20;35.60
13569;DHT22;6856;51.460;7.158;2023-04-05T13:29:28;17.10;35.40
13569;DHT22;6856;51.460;7.158;2023-04-05T13:32:02;17.10;35.60
13569;DHT22;6856;51.460;7.158;2023-04-05T13:34:35;17.00;35.20
13569;DHT22;6856;51.460;7.158;2023-04-05T13:37:09;17.00;35.60
13569;DHT22;6856;51.460;7.158;2023-04-05T13:39:43;17.00;35.70
13569;DHT22;6856;51.460;7.158;2023-04-05T13:42:16;17.00;35.10
13569;DHT22;6856;51.460;7.158;2023-04-05T13:44:56;17.00;35.00
13569;DHT22;6856;51.460;7.158;2023-04-05T13:47:29;16.90;34.80
13569;DHT22;6856;51.460;7.158;2023-04-05T13:50:04;16.90;34.90
13569;DHT22;6856;51.460;7.158;2023-04-05T13:52:39;16.90;34.70
13569;DHT22;6856;51.460;7.158;2023-04-05T13:55:14;16.90;35.60
13569;DHT22;6856;51.460;7.158;2023-04-05T13:57:47;16.90;35.00
13569;DHT22;6856;51.460;7.158;2023-04-05T14:00:23;16.90;35.30
13569;DHT22;6856;51.460;7.158;2023-04-05T14:02:57;16.90;35.00
13569;DHT22;6856;51.460;7.158;2023-04-05T14:05:31;17.00;35.10
13569;DHT22;6856;51.460;7.158;2023-04-05T14:08:05;17.00;35.50
13569;DHT22;6856;51.460;7.158;2023-04-05T14:10:39;17.00;34.90
13569;DHT22;6856;51.460;7.158;2023-04-05T14:13:13;17.00;35.50
13569;DHT22;6856;51.460;7.158;2023-04-05T14:15:50;17.10;35.50
13569;DHT22;6856;51.460;7.158;2023-04-05T14:18:25;17.10;35.20
13569;DHT22;6856;51.460;7.158;2023-04-05T14:20:59;17.20;35.20
13569;DHT22;6856;51.460;7.158;2023-04-05T14:23:32;17.30;35.10
13569;DHT22;6856;51.460;7.158;2023-04-05T14:26:06;17.30;35.30
13569;DHT22;6856;51.460;7.158;2023-04-05T14:28:40;17.30;34.90
13569;DHT22;6856;51.460;7.158;2023-04-05T14:31:16;17.30;35.00
13569;DHT22;6856;51.460;7.158;2023-04-05T14:33:50;17.40;34.40
13569;DHT22;6856;51.460;7.158;2023-04-05T14:36:24;17.40;34.70
13569;DHT22;6856;51.460;7.158;2023-04-05T14:38:58;17.40;34.90
13569;DHT22;6856;51.460;7.158;2023-04-05T14:41:32;17.40;34.60
13569;DHT22;6856;51.460;7.158;2023-04-05T14:44:06;17.50;34.80
13569;DHT22;6856;51.460;7.158;2023-04-05T14:46:41;17.50;35.00
13569;DHT22;6856;51.460;7.158;2023-04-05T14:49:15;17.60;34.70
13569;DHT22;6856;51.460;7.158;2023-04-05T14:51:49;17.60;35.00
13569;DHT22;6856;51.460;7.158;2023-04-05T14:54:23;17.70;35.20
13569;DHT22;6856;51.460;7.158;2023-04-05T14:56:57;17.70;35.10
13569;DHT22;6856;51.460;7.158;2023-04-05T14:59:30;17.80;34.60
13569;DHT22;6856;51.460;7.158;2023-04-05T15:02:06;17.80;34.20
13569;DHT22;6856;51.460;7.158;2023-04-05T15:04:41;17.80;34.50
13569;DHT22;6856;51.460;7.158;2023-04-05T15:07:16;17.80;34.40
13569;DHT22;6856;51.460;7.158;2023-04-05T15:09:50;17.80;34.20
13569;DHT22;6856;51.460;7.158;2023-04-05T15:12:23;17.90;34.00
13569;DHT22;6856;51.460;7.158;2023-04-05T15:15:01;17.80;33.80
13569;DHT22;6856;51.460;7.158;2023-04-05T15:17:37;17.90;34.50
13569;DHT22;6856;51.460;7.158;2023-04-05T15:20:11;17.90;34.30
13569;DHT22;6856;51.460;7.158;2023-04-05T15:22:45;17.90;34.70
13569;DHT22;6856;51.460;7.158;2023-04-05T15:25:20;17.90;34.50
13569;DHT22;6856;51.460;7.158;2023-04-05T15:27:55;18.00;33.90
13569;DHT22;6856;51.460;7.158;2023-04-05T15:30:35;18.00;33.90
13569;DHT22;6856;51.460;7.158;2023-04-05T15:33:13;18.00;34.20
13569;DHT22;6856;51.460;7.158;2023-04-05T15:35:48;18.00;34.50
13569;DHT22;6856;51.460;7.158;2023-04-05T15:38:22;18.00;34.70
13569;DHT22;6856;51.460;7.158;2023-04-05T15:40:56;18.00;34.30
13569;DHT22;6856;51.460;7.158;2023-04-05T15:43:30;18.00;33.80
13569;DHT22;6856;51.460;7.158;2023-04-05T15:46:05;18.10;33.90
13569;DHT22;6856;51.460;7.158;2023-04-05T15:48:40;18.10;34.10
13569;DHT22;6856;51.460;7.158;2023-04-05T15:51:15;18.10;33.10
13569;DHT22;6856;51.460;7.158;2023-04-05T15:53:50;18.10;33.40
13569;DHT22;6856;51.460;7.158;2023-04-05T15:56:24;18.00;33.40
13569;DHT22;6856;51.460;7.158;2023-04-05T15:58:58;18.00;33.50
13569;DHT22;6856;51.460;7.158;2023-04-05T16:01:33;18.00;32.70
13569;DHT22;6856;51.460;7.158;2023-04-05T16:04:11;17.90;33.10
13569;DHT22;6856;51.460;7.158;2023-04-05T16:06:45;18.00;32.90
13569;DHT22;6856;51.460;7.158;2023-04-05T16:09:19;17.90;33.20
13569;DHT22;6856;51.460;7.158;2023-04-05T16:11:53;17.90;33.20
13569;DHT22;6856;51.460;7.158;2023-04-05T16:14:27;17.90;33.30
13569;DHT22;6856;51.460;7.158;2023-04-05T16:17:00;17.90;33.30
13569;DHT22;6856;51.460;7.158;2023-04-05T16:19:36;17.90;33.50
13569;DHT22;6856;51.460;7.158;2023-04-05T16:22:10;17.90;33.30
13569;DHT22;6856;51.460;7.158;2023-04-05T16:24:44;17.90;33.50
13569;DHT22;6856;51.460;7.158;2023-04-05T16:27:19;17.90;33.50
13569;DHT22;6856;51.460;7.158;2023-04-05T16:29:53;17.90;32.80
13569;DHT22;6856;51.460;7.158;2023-04-05T16:32:27;17.90;32.90
13569;DHT22;6856;51.460;7.158;2023-04-05T16:35:02;17.80;32.60
13569;DHT22;6856;51.460;7.158;2023-04-05T16:37:37;17.80;32.80
13569;DHT22;6856;51.460;7.158;2023-04-05T16:40:12;17.70;33.10
13569;DHT22;6856;51.460;7.158;2023-04-05T16:42:46;17.60;33.10
13569;DHT22;6856;51.460;7.158;2023-04-05T16:45:20;17.50;33.30
13569;DHT22;6856;51.460;7.158;2023-04-05T16:47:54;17.50;33.30
13569;DHT22;6856;51.460;7.158;2023-04-05T16:50:29;17.50;33.10
13569;DHT22;6856;51.460;7.158;2023-04-05T16:53:03;17.50;33.00
13569;DHT22;6856;51.460;7.158;2023-04-05T16:55:37;17.50;33.40